createdAt,value
2019-05-26T00:00:25.925Z,90.80
2019-05-26T00:02:53.584Z,91.70
2019-05-26T00:05:21.194Z,91.00
2019-05-26T00:07:48.824Z,90.10
2019-05-26T00:10:16.568Z,90.60
2019-05-26T00:12:44.233Z,90.60
2019-05-26T00:15:12.621Z,90.70
2019-05-26T00:17:40.312Z,89.90
2019-05-26T00:20:08.750Z,90.50
2019-05-26T00:22:36.297Z,90.70
2019-05-26T00:25:04.206Z,90.70
2019-05-26T00:27:31.785Z,90.50
2019-05-26T00:29:59.368Z,90.60
2019-05-26T00:32:26.980Z,91.00
2019-05-26T00:34:54.632Z,91.50
2019-05-26T00:37:22.234Z,91.10
2019-05-26T00:39:49.871Z,91.20
2019-05-26T00:42:17.592Z,91.30
2019-05-26T00:44:45.149Z,91.30
2019-05-26T00:47:12.935Z,91.60
2019-05-26T00:49:40.577Z,92.60
2019-05-26T00:52:08.261Z,93.10
2019-05-26T00:54:35.889Z,93.20
2019-05-26T00:57:03.594Z,93.70
2019-05-26T00:59:31.231Z,94.10
2019-05-26T01:01:58.918Z,94.10
2019-05-26T01:04:26.567Z,95.00
2019-05-26T01:06:54.205Z,96.60
2019-05-26T01:31:55.031Z,95.10
2019-05-26T01:38:22.241Z,94.10
2019-05-26T01:40:39.885Z,93.80
2019-05-26T01:44:10.324Z,93.90
2019-05-26T06:01:59.614Z,69.00
2019-05-26T06:04:27.546Z,68.60
2019-05-26T06:06:55.331Z,66.80
2019-05-26T06:09:23.087Z,66.70
2019-05-26T06:11:55.885Z,66.70
2019-05-26T06:14:20.659Z,67.10
2019-05-26T06:16:48.361Z,66.70
2019-05-26T06:19:16.282Z,66.40
2019-05-26T06:21:44.270Z,65.50
2019-05-26T06:24:12.220Z,65.60
2019-05-26T06:26:41.473Z,65.00
2019-05-26T06:29:09.220Z,64.90
2019-05-26T06:31:37.418Z,64.90
2019-05-26T06:34:05.499Z,64.20
2019-05-26T06:36:33.742Z,63.30
2019-05-26T06:39:02.452Z,64.30
2019-05-26T06:41:33.911Z,64.00
2019-05-26T06:43:59.745Z,63.20
2019-05-26T06:46:28.373Z,62.70
2019-05-26T06:48:57.869Z,61.30
2019-05-26T06:51:25.542Z,61.20
2019-05-26T06:53:53.074Z,59.10
2019-05-26T06:56:20.728Z,59.10
2019-05-26T06:58:48.309Z,56.40
2019-05-26T07:01:15.846Z,57.10
2019-05-26T07:03:43.371Z,56.30
2019-05-26T07:06:10.942Z,56.60
2019-05-26T07:08:38.542Z,56.70
2019-05-26T07:11:06.074Z,55.80
2019-05-26T07:13:33.609Z,54.50
2019-05-26T07:16:01.124Z,54.30
2019-05-26T07:18:28.653Z,55.10
2019-05-26T07:20:56.159Z,55.40
2019-05-26T07:23:23.736Z,54.70
2019-05-26T07:25:51.313Z,55.00
2019-05-26T07:28:18.868Z,55.40
2019-05-26T07:30:46.592Z,55.20
2019-05-26T07:33:14.151Z,54.10
2019-05-26T07:35:42.793Z,54.70
2019-05-26T07:38:10.434Z,54.60
2019-05-26T07:40:38.013Z,55.80
2019-05-26T07:43:05.617Z,56.40
2019-05-26T07:45:33.238Z,56.60
2019-05-26T07:48:01.945Z,57.10
2019-05-26T07:50:29.658Z,55.90
2019-05-26T07:52:57.344Z,56.20
2019-05-26T07:55:24.940Z,54.90
2019-05-26T07:57:52.507Z,55.00
2019-05-26T08:00:20.309Z,55.30
2019-05-26T08:02:48.045Z,54.90
2019-05-26T08:05:15.707Z,54.50
2019-05-26T08:07:43.280Z,54.70
2019-05-26T08:10:11.094Z,53.30
2019-05-26T08:12:38.696Z,52.80
2019-05-26T08:15:07.471Z,52.70
2019-05-26T08:17:35.045Z,52.40
2019-05-26T08:20:02.667Z,52.10
2019-05-26T08:22:30.322Z,52.10
2019-05-26T08:24:57.910Z,52.40
2019-05-26T08:27:25.950Z,52.10
2019-05-26T08:29:53.517Z,51.30
2019-05-26T08:32:21.129Z,50.20
2019-05-26T08:34:48.868Z,50.20
2019-05-26T08:37:16.576Z,51.00
2019-05-26T08:39:48.008Z,49.70
2019-05-26T08:42:26.324Z,50.40
2019-05-26T08:44:43.075Z,50.20
2019-05-26T08:47:10.887Z,48.40
2019-05-26T08:49:38.590Z,48.60
2019-05-26T08:52:06.270Z,48.00
2019-05-26T08:54:34.093Z,49.20
2019-05-26T08:57:01.715Z,49.20
2019-05-26T08:59:29.479Z,49.30
2019-05-26T09:01:57.345Z,48.10
2019-05-26T09:04:25.200Z,47.90
2019-05-26T09:06:53.022Z,48.50
2019-05-26T09:09:21.209Z,47.00
2019-05-26T09:11:49.190Z,47.30
2019-05-26T09:14:18.005Z,45.20
2019-05-26T09:16:45.925Z,45.80
2019-05-26T09:19:19.474Z,44.10
2019-05-26T09:21:51.590Z,44.20
2019-05-26T09:24:21.044Z,44.50
2019-05-26T09:26:52.481Z,43.40
2019-05-26T09:29:30.730Z,45.00
2019-05-26T09:31:58.663Z,44.40
2019-05-26T09:34:27.734Z,45.10
2019-05-26T09:36:58.515Z,45.70
2019-05-26T09:39:29.380Z,46.10
2019-05-26T09:41:57.657Z,44.90
2019-05-26T09:44:26.296Z,44.20
2019-05-26T09:46:54.626Z,44.90
2019-05-26T09:49:25.056Z,44.30
2019-05-26T09:51:54.367Z,43.90
2019-05-26T09:54:23.070Z,44.30
2019-05-26T09:56:51.507Z,42.60
2019-05-26T09:59:21.521Z,43.20
2019-05-26T10:01:50.582Z,44.00
2019-05-26T10:04:20.713Z,42.80
2019-05-26T10:06:51.256Z,44.00
2019-05-26T10:09:18.932Z,43.20
2019-05-26T10:11:47.072Z,44.30
2019-05-26T10:14:14.888Z,44.20
2019-05-26T10:16:42.806Z,45.60
2019-05-26T10:19:10.578Z,44.90
2019-05-26T10:21:38.343Z,45.80
2019-05-26T10:24:06.087Z,45.70
2019-05-26T10:26:34.001Z,45.80
2019-05-26T10:29:01.761Z,46.10
2019-05-26T10:31:32.506Z,47.30
2019-05-26T10:34:00.479Z,46.60
2019-05-26T10:36:28.546Z,46.80
2019-05-26T10:41:33.637Z,45.80
2019-05-26T10:44:03.878Z,43.40
2019-05-26T10:46:38.835Z,43.20
2019-05-26T10:49:06.517Z,43.20
2019-05-26T10:51:34.136Z,43.50
2019-05-26T10:54:01.865Z,42.70
2019-05-26T10:56:40.652Z,42.10
2019-05-26T10:59:10.598Z,40.50
2019-05-26T11:01:38.190Z,41.20
2019-05-26T11:04:07.032Z,41.80
2019-05-26T11:06:34.740Z,41.90
2019-05-26T11:09:03.402Z,39.40
2019-05-26T11:11:31.192Z,39.90
2019-05-26T11:14:02.980Z,39.20
2019-05-26T11:16:31.450Z,39.00
2019-05-26T11:19:14.167Z,38.20
2019-05-26T11:21:44.781Z,39.90
2019-05-26T11:24:15.956Z,41.40
2019-05-26T11:26:43.697Z,41.60
2019-05-26T11:29:12.927Z,42.70
2019-05-26T11:31:41.465Z,43.00
2019-05-26T11:34:26.824Z,41.90
2019-05-26T11:36:54.955Z,44.10
2019-05-26T11:39:23.667Z,43.20
2019-05-26T11:41:54.879Z,40.30
2019-05-26T11:44:21.573Z,41.90
2019-05-26T11:50:43.735Z,42.30
2019-05-26T11:53:16.855Z,43.00
2019-05-26T11:55:45.732Z,42.40
2019-05-26T11:58:13.405Z,42.80
2019-05-26T12:01:03.989Z,42.00
2019-05-26T12:03:44.643Z,41.90
2019-05-26T12:06:20.708Z,40.00
2019-05-26T12:09:00.674Z,40.00
2019-05-26T12:11:33.266Z,41.40
2019-05-26T12:14:01.326Z,40.80
2019-05-26T12:16:29.672Z,42.90
2019-05-26T12:18:57.342Z,41.20
2019-05-26T12:21:28.937Z,41.20
2019-05-26T12:23:56.956Z,39.70
2019-05-26T12:26:24.797Z,40.10
2019-05-26T12:29:08.569Z,38.20
2019-05-26T12:31:36.261Z,39.50
2019-05-26T12:34:13.550Z,39.20
2019-05-26T12:36:43.991Z,39.10
2019-05-26T12:39:12.427Z,39.10
2019-05-26T12:41:40.419Z,37.50
2019-05-26T12:44:10.922Z,38.90
2019-05-26T12:46:38.122Z,37.20
2019-05-26T12:49:12.442Z,37.80
2019-05-26T12:51:40.196Z,36.50
2019-05-26T12:54:08.033Z,36.50
2019-05-26T12:56:58.356Z,35.70
2019-05-26T12:59:26.105Z,35.30
2019-05-26T13:01:54.054Z,34.60
2019-05-26T13:04:21.904Z,35.10
2019-05-26T13:06:49.591Z,34.90
2019-05-26T13:09:17.714Z,35.30
2019-05-26T13:11:45.791Z,35.90
2019-05-26T13:14:13.427Z,36.20
2019-05-26T13:16:42.195Z,35.50
2019-05-26T13:19:09.870Z,36.60
2019-05-26T13:21:37.683Z,36.90
2019-05-26T13:24:32.287Z,36.90
2019-05-26T13:27:00.126Z,36.40
2019-05-26T13:29:28.178Z,36.10
2019-05-26T13:31:55.862Z,34.50
2019-05-26T13:34:35.909Z,34.00
2019-05-26T13:37:10.137Z,32.90
2019-05-26T13:40:51.550Z,33.30
2019-05-26T13:43:28.325Z,33.10
2019-05-26T13:56:53.938Z,32.10
2019-05-26T13:59:34.185Z,32.40
2019-05-26T14:02:01.781Z,33.00
2019-05-26T14:04:29.509Z,33.00
2019-05-26T14:07:07.705Z,32.90
2019-05-26T14:09:35.250Z,32.70
2019-05-26T14:12:03.086Z,33.70
2019-05-26T14:14:32.006Z,33.20
2019-05-26T14:17:01.497Z,33.10
2019-05-26T14:19:29.632Z,33.10
2019-05-26T14:21:57.276Z,32.80
2019-05-26T14:24:25.057Z,30.50
2019-05-26T14:26:52.839Z,32.30
2019-05-26T14:29:21.835Z,31.70
2019-05-26T14:31:52.691Z,31.80
2019-05-26T14:34:18.757Z,32.20
2019-05-26T14:37:57.831Z,33.50
2019-05-26T14:40:25.387Z,33.40
2019-05-26T14:42:56.512Z,33.40
2019-05-26T14:45:24.098Z,32.00
2019-05-26T14:47:51.761Z,32.80
2019-05-26T14:50:19.593Z,33.30
2019-05-26T14:52:47.137Z,32.80
2019-05-26T14:55:14.871Z,34.20
2019-05-26T14:57:42.832Z,34.50
2019-05-26T15:00:11.043Z,35.30
2019-05-26T15:02:38.652Z,35.40
2019-05-26T15:05:06.954Z,35.70
2019-05-26T15:07:34.565Z,35.10
2019-05-26T15:10:02.233Z,34.50
2019-05-26T15:12:42.957Z,35.80
2019-05-26T15:15:10.757Z,36.40
2019-05-26T15:17:38.441Z,37.10
2019-05-26T15:20:06.437Z,36.10
2019-05-26T15:22:34.073Z,37.20
2019-05-26T15:25:01.733Z,36.80
2019-05-26T15:27:29.402Z,36.90
2019-05-26T15:29:56.997Z,36.70
2019-05-26T15:32:26.742Z,35.40
2019-05-26T15:34:56.341Z,33.80
2019-05-26T15:37:25.665Z,34.20
2019-05-26T15:39:54.671Z,32.20
2019-05-26T15:42:23.557Z,32.90
2019-05-26T15:44:52.547Z,31.60
2019-05-26T15:47:21.261Z,31.90
2019-05-26T15:49:50.087Z,31.40
2019-05-26T15:52:19.302Z,32.70
2019-05-26T15:54:48.369Z,31.90
2019-05-26T15:57:17.274Z,32.50
2019-05-26T15:59:46.106Z,30.60
2019-05-26T16:02:14.999Z,31.90
2019-05-26T16:04:45.592Z,32.60
2019-05-26T16:07:14.820Z,32.90
2019-05-26T16:09:43.440Z,33.60
2019-05-26T16:12:12.434Z,33.30
2019-05-26T16:14:41.260Z,32.90
2019-05-26T16:17:10.073Z,32.50
2019-05-26T16:19:40.068Z,33.00
2019-05-26T16:22:08.808Z,32.70
2019-05-26T16:24:37.983Z,33.00
2019-05-26T16:27:18.847Z,33.10
2019-05-26T16:29:37.541Z,32.10
2019-05-26T16:32:06.423Z,33.10
2019-05-26T16:34:35.653Z,33.60
2019-05-26T16:37:04.486Z,32.50
2019-05-26T16:39:37.272Z,33.30
2019-05-26T16:42:04.218Z,33.40
2019-05-26T16:44:31.791Z,33.20
2019-05-26T16:46:59.469Z,33.10
2019-05-26T16:49:27.315Z,33.00
2019-05-26T16:51:54.991Z,33.10
2019-05-26T16:54:22.651Z,32.90
2019-05-26T16:56:50.217Z,31.60
2019-05-26T16:59:18.905Z,33.10
2019-05-26T17:01:46.568Z,33.00
2019-05-26T17:04:14.255Z,33.20
2019-05-26T17:06:41.801Z,33.40
2019-05-26T17:09:09.510Z,33.30
2019-05-26T17:11:37.081Z,32.90
2019-05-26T17:14:05.026Z,34.10
2019-05-26T17:16:32.631Z,34.70
2019-05-26T17:19:00.268Z,35.80
2019-05-26T17:21:27.990Z,36.80
2019-05-26T17:23:55.634Z,37.30
2019-05-26T17:26:23.439Z,38.20
2019-05-26T17:28:51.039Z,38.20
2019-05-26T17:31:18.660Z,38.00
2019-05-26T17:33:46.297Z,38.30
2019-05-26T17:36:14.093Z,38.40
2019-05-26T17:38:41.938Z,39.20
2019-05-26T17:41:09.661Z,38.90
2019-05-26T17:43:37.247Z,39.50
2019-05-26T17:46:04.977Z,41.80
2019-05-26T17:48:32.545Z,42.30
2019-05-26T17:51:00.127Z,42.40
2019-05-26T17:53:27.859Z,43.60
2019-05-26T17:55:55.465Z,44.90
2019-05-26T17:58:23.102Z,44.00
2019-05-26T18:00:50.748Z,44.10
2019-05-26T18:03:18.494Z,44.10
2019-05-26T18:05:46.105Z,44.70
2019-05-26T18:08:13.666Z,45.60
2019-05-26T18:10:41.283Z,45.80
2019-05-26T18:13:08.851Z,45.90
2019-05-26T18:15:36.409Z,46.50
2019-05-26T18:18:04.028Z,47.40
2019-05-26T18:20:31.743Z,46.90
2019-05-26T18:22:59.349Z,48.20
2019-05-26T18:25:27.005Z,48.90
2019-05-26T18:27:54.664Z,50.00
2019-05-26T18:30:22.630Z,50.60
2019-05-26T18:32:50.980Z,51.20
2019-05-26T18:35:18.504Z,51.70
2019-05-26T18:37:47.338Z,51.90
2019-05-26T18:40:15.268Z,53.50
2019-05-26T18:42:43.621Z,54.10
2019-05-26T18:45:11.639Z,54.60
2019-05-26T18:47:39.215Z,54.50
2019-05-26T18:50:07.169Z,55.90
2019-05-26T18:52:34.729Z,56.40
2019-05-26T18:55:11.118Z,56.80
2019-05-26T18:57:38.770Z,57.00
2019-05-26T19:00:06.914Z,57.10
2019-05-26T19:02:34.439Z,58.30
2019-05-26T19:05:02.351Z,58.90
2019-05-26T19:07:29.978Z,59.40
2019-05-26T19:09:57.529Z,59.90
2019-05-26T19:12:25.082Z,60.80
2019-05-26T19:14:52.681Z,61.30
2019-05-26T19:17:20.284Z,61.30
2019-05-26T19:19:47.909Z,62.10
2019-05-26T19:22:15.530Z,62.30
2019-05-26T19:24:43.116Z,63.30
2019-05-26T19:27:10.795Z,63.40
2019-05-26T19:29:38.373Z,63.60
2019-05-26T19:32:06.223Z,63.90
2019-05-26T19:34:33.814Z,64.20
2019-05-26T19:37:01.390Z,64.80
2019-05-26T19:39:29.119Z,64.10
2019-05-26T19:41:56.743Z,64.10
2019-05-26T19:44:24.339Z,65.50
2019-05-26T19:46:53.080Z,66.10
2019-05-26T19:49:20.875Z,65.20
2019-05-26T19:51:48.498Z,65.80
2019-05-26T19:54:16.372Z,64.60
2019-05-26T19:56:44.010Z,65.00
2019-05-26T19:59:11.586Z,64.70
2019-05-26T20:01:39.204Z,65.10
2019-05-26T20:04:06.830Z,66.10
2019-05-26T20:06:34.466Z,64.10
2019-05-26T20:09:02.243Z,64.00
2019-05-26T20:11:30.362Z,64.00
2019-05-26T20:13:57.965Z,64.30
2019-05-26T20:16:25.646Z,64.10
2019-05-26T20:18:53.342Z,64.60
2019-05-26T20:21:21.083Z,64.20
2019-05-26T20:23:48.687Z,64.70
2019-05-26T20:26:17.071Z,64.90
2019-05-26T20:28:44.744Z,64.10
2019-05-26T20:31:12.316Z,64.20
2019-05-26T20:33:39.878Z,65.60
2019-05-26T20:36:07.504Z,66.00
2019-05-26T20:38:35.187Z,65.70
2019-05-26T20:41:02.890Z,65.90
2019-05-26T20:43:30.542Z,66.20
2019-05-26T20:45:58.177Z,66.80
2019-05-26T20:48:25.846Z,67.00
2019-05-26T20:50:53.545Z,67.50
2019-05-26T20:53:21.187Z,67.70
2019-05-26T20:55:48.881Z,67.50
2019-05-26T20:58:16.509Z,67.60
2019-05-26T21:00:44.139Z,68.20
2019-05-26T21:03:11.745Z,70.00
2019-05-26T21:05:39.387Z,70.90
2019-05-26T21:08:07.042Z,71.10
2019-05-26T21:10:34.661Z,71.40
2019-05-26T21:13:02.244Z,71.70
2019-05-26T21:15:29.807Z,72.80
2019-05-26T21:17:57.556Z,72.80
2019-05-26T21:20:25.144Z,72.70
2019-05-26T21:22:52.776Z,73.00
2019-05-26T21:25:20.370Z,73.60
2019-05-26T21:27:47.964Z,74.00
2019-05-26T21:30:15.746Z,74.50
2019-05-26T21:32:44.035Z,75.50
2019-05-26T21:35:12.159Z,75.50
2019-05-26T21:37:39.836Z,76.10
2019-05-26T21:40:07.661Z,76.70
2019-05-26T21:42:35.269Z,77.70
2019-05-26T21:45:02.905Z,77.60
2019-05-26T21:47:30.481Z,76.80
2019-05-26T21:49:58.110Z,77.40
2019-05-26T21:52:25.708Z,77.80
2019-05-26T21:54:53.371Z,78.20
2019-05-26T21:57:20.989Z,79.30
2019-05-26T21:59:48.563Z,79.00
2019-05-26T22:02:16.215Z,80.50
2019-05-26T22:04:43.840Z,80.60
2019-05-26T22:07:11.995Z,80.30
2019-05-26T22:09:39.667Z,79.80
2019-05-26T22:12:07.219Z,79.80
2019-05-26T22:14:34.821Z,80.40
2019-05-26T22:17:02.557Z,80.20
2019-05-26T22:19:30.102Z,79.20
2019-05-26T22:21:57.674Z,80.20
2019-05-26T22:24:25.250Z,79.50
2019-05-26T22:26:52.789Z,79.40
2019-05-26T22:29:20.745Z,78.80
2019-05-26T22:31:48.471Z,79.20
2019-05-26T22:34:16.015Z,79.30
2019-05-26T22:36:43.662Z,79.10
2019-05-26T22:39:11.207Z,80.20
2019-05-26T22:41:38.783Z,80.50
2019-05-26T22:44:06.324Z,81.50
2019-05-26T22:46:33.939Z,80.70
2019-05-26T22:49:01.527Z,81.70
2019-05-26T22:51:29.570Z,82.30
2019-05-26T22:53:57.211Z,82.80
2019-05-26T22:56:24.777Z,83.10
2019-05-26T22:58:52.364Z,83.70
2019-05-26T23:01:20.044Z,84.10
2019-05-26T23:03:47.660Z,83.60
2019-05-26T23:06:15.263Z,84.00
2019-05-26T23:08:42.891Z,84.80
2019-05-26T23:11:10.498Z,84.50
2019-05-26T23:13:38.064Z,84.70
2019-05-26T23:16:05.742Z,85.80
2019-05-26T23:18:33.237Z,84.80
2019-05-26T23:21:00.919Z,85.40
2019-05-26T23:23:28.551Z,85.60
2019-05-26T23:25:56.146Z,85.50
2019-05-26T23:28:23.757Z,85.00
2019-05-26T23:30:51.333Z,84.70
2019-05-26T23:33:18.872Z,84.90
2019-05-26T23:35:46.433Z,84.90
2019-05-26T23:38:14.015Z,85.70
2019-05-26T23:40:41.658Z,85.30
2019-05-26T23:43:09.278Z,85.20
2019-05-26T23:45:36.939Z,85.10
2019-05-26T23:48:04.541Z,85.30
2019-05-26T23:50:32.091Z,84.30
2019-05-26T23:52:59.690Z,84.30
2019-05-26T23:55:27.258Z,85.20
2019-05-26T23:57:54.931Z,85.00
